createdAt,value
2019-05-14T00:03:11.283Z,14.85
2019-05-14T00:07:22.150Z,14.84
2019-05-14T00:11:31.210Z,14.88
2019-05-14T00:15:41.328Z,15.05
2019-05-14T00:20:02.711Z,15.21
2019-05-14T00:23:58.856Z,15.12
2019-05-14T00:28:06.953Z,15.13
2019-05-14T00:32:14.456Z,15.04
2019-05-14T00:36:22.316Z,15.01
2019-05-14T00:40:31.431Z,14.96
2019-05-14T00:44:51.535Z,14.71
2019-05-14T00:48:48.805Z,14.59
2019-05-14T00:52:57.894Z,14.16
2019-05-14T00:57:05.768Z,14.04
2019-05-14T01:01:13.839Z,14.50
2019-05-14T01:05:22.025Z,14.28
2019-05-14T01:09:31.479Z,14.31
2019-05-14T01:13:38.782Z,14.37
2019-05-14T01:17:46.765Z,14.29
2019-05-14T01:21:54.155Z,14.25
2019-05-14T01:26:02.609Z,14.27
2019-05-14T01:30:12.431Z,14.09
2019-05-14T01:34:21.614Z,14.06
2019-05-14T01:38:31.445Z,14.00
2019-05-14T01:42:38.391Z,14.10
2019-05-14T01:46:45.980Z,13.95
2019-05-14T01:50:53.866Z,14.00
2019-05-14T01:55:02.167Z,13.99
2019-05-14T01:59:12.080Z,14.12
2019-05-14T02:03:21.456Z,14.18
2019-05-14T02:07:28.727Z,14.12
2019-05-14T02:11:37.396Z,14.20
2019-05-14T02:15:45.833Z,13.95
2019-05-14T02:19:54.034Z,14.01
2019-05-14T02:24:02.207Z,14.18
2019-05-14T02:28:11.542Z,14.21
2019-05-14T02:32:21.080Z,14.39
2019-05-14T02:36:30.972Z,14.06
2019-05-14T02:40:40.410Z,14.15
2019-05-14T02:44:49.043Z,14.22
2019-05-14T02:48:59.454Z,14.32
2019-05-14T02:53:06.431Z,14.31
2019-05-14T02:57:14.265Z,14.39
2019-05-14T03:01:22.085Z,14.36
2019-05-14T03:05:30.431Z,14.43
2019-05-14T03:09:40.327Z,14.45
2019-05-14T03:13:49.478Z,14.35
2019-05-14T03:17:59.953Z,14.19
2019-05-14T03:22:10.067Z,14.11
2019-05-14T03:26:19.906Z,14.35
2019-05-14T03:30:32.141Z,14.35
2019-05-14T03:34:42.066Z,14.40
2019-05-14T03:38:46.414Z,14.47
2019-05-14T03:42:54.010Z,14.28
2019-05-14T03:47:05.278Z,14.19
2019-05-14T03:51:11.284Z,14.22
2019-05-14T03:55:20.242Z,14.23
2019-05-14T03:59:29.297Z,14.21
2019-05-14T04:03:39.832Z,14.55
2019-05-14T04:07:50.317Z,14.67
2019-05-14T04:12:00.060Z,14.61
2019-05-14T04:16:09.457Z,14.72
2019-05-14T04:20:19.717Z,14.79
2019-05-14T04:24:29.824Z,14.43
2019-05-14T04:28:39.430Z,14.54
2019-05-14T04:32:50.752Z,14.46
2019-05-14T04:36:59.504Z,14.43
2019-05-14T04:41:10.359Z,14.52
2019-05-14T04:45:19.671Z,14.65
2019-05-14T04:49:29.108Z,14.73
2019-05-14T04:53:39.384Z,14.91
2019-05-14T04:57:49.818Z,15.10
2019-05-14T05:02:00.123Z,15.29
2019-05-14T05:06:09.920Z,15.60
2019-05-14T05:10:19.287Z,15.79
2019-05-14T05:14:26.403Z,15.93
2019-05-14T05:18:34.220Z,16.00
2019-05-14T05:22:41.738Z,16.04
2019-05-14T05:26:49.522Z,16.02
2019-05-14T05:30:58.513Z,16.15
2019-05-14T05:35:09.251Z,15.81
2019-05-14T05:39:16.103Z,15.78
2019-05-14T05:43:23.928Z,15.87
2019-05-14T05:47:31.409Z,16.12
2019-05-14T05:51:39.419Z,16.39
2019-05-14T05:55:48.434Z,16.22
2019-05-14T05:59:58.696Z,16.09
2019-05-14T06:04:08.709Z,16.52
2019-05-14T06:08:18.801Z,16.76
2019-05-14T06:12:26.307Z,17.00
2019-05-14T06:16:34.512Z,17.07
2019-05-14T06:20:42.430Z,17.34
2019-05-14T06:24:50.019Z,17.34
2019-05-14T06:28:59.729Z,17.55
2019-05-14T06:33:09.257Z,17.78
2019-05-14T06:37:18.888Z,18.04
2019-05-14T06:41:28.196Z,18.20
2019-05-14T06:45:35.207Z,18.20
2019-05-14T06:49:43.035Z,18.28
2019-05-14T06:53:50.932Z,18.55
2019-05-14T06:57:58.829Z,18.69
2019-05-14T07:02:08.755Z,18.75
2019-05-14T07:06:18.676Z,18.37
2019-05-14T07:10:28.759Z,18.61
2019-05-14T07:14:36.042Z,18.10
2019-05-14T07:18:49.249Z,18.10
2019-05-14T07:22:54.112Z,18.14
2019-05-14T07:27:01.905Z,18.42
2019-05-14T07:31:10.425Z,18.47
2019-05-14T07:35:18.518Z,18.23
2019-05-14T07:39:28.889Z,18.10
2019-05-14T07:43:35.584Z,18.22
2019-05-14T07:47:43.615Z,18.28
2019-05-14T07:51:51.997Z,18.43
2019-05-14T07:56:00.053Z,18.46
2019-05-14T08:00:08.567Z,18.00
2019-05-14T08:04:19.755Z,18.00
2019-05-14T08:08:25.809Z,18.23
2019-05-14T08:12:33.756Z,18.72
2019-05-14T08:16:41.163Z,18.41
2019-05-14T08:20:49.041Z,17.68
2019-05-14T08:24:58.081Z,17.16
2019-05-14T08:29:06.036Z,17.12
2019-05-14T08:33:15.068Z,17.02
2019-05-14T08:37:22.460Z,17.15
2019-05-14T08:41:30.026Z,17.33
2019-05-14T08:45:38.956Z,18.20
2019-05-14T08:49:50.706Z,18.77
2019-05-14T08:53:59.239Z,19.35
2019-05-14T08:58:13.317Z,19.71
2019-05-14T09:02:16.624Z,19.38
2019-05-14T09:06:24.810Z,19.33
2019-05-14T09:10:32.340Z,19.39
2019-05-14T09:14:40.225Z,19.14
2019-05-14T09:18:49.076Z,19.15
2019-05-14T09:22:59.178Z,18.72
2019-05-14T09:27:08.488Z,18.34
2019-05-14T09:31:16.850Z,18.09
2019-05-14T09:35:25.689Z,17.84
2019-05-14T09:39:33.462Z,17.20
2019-05-14T09:43:41.230Z,17.20
2019-05-14T09:47:50.720Z,16.79
2019-05-14T09:51:58.691Z,16.49
2019-05-14T09:56:09.063Z,16.31
2019-05-14T10:00:19.218Z,16.08
2019-05-14T10:04:26.605Z,16.13
2019-05-14T10:08:34.195Z,16.28
2019-05-14T10:12:52.710Z,16.54
2019-05-14T10:16:51.605Z,17.04
2019-05-14T10:20:59.292Z,17.46
2019-05-14T10:25:09.063Z,17.55
2019-05-14T10:29:18.976Z,17.49
2019-05-14T10:33:28.734Z,17.22
2019-05-14T10:37:39.785Z,17.12
2019-05-14T10:41:46.045Z,17.23
2019-05-14T10:45:54.019Z,17.23
2019-05-14T10:50:02.022Z,17.27
2019-05-14T10:54:20.988Z,17.43
2019-05-14T10:58:20.171Z,17.42
2019-05-14T11:02:29.204Z,17.28
2019-05-14T11:06:38.841Z,17.14
2019-05-14T11:10:49.465Z,16.99
2019-05-14T11:14:56.720Z,16.83
2019-05-14T11:19:04.650Z,16.83
2019-05-14T11:23:12.355Z,16.63
2019-05-14T11:27:20.286Z,16.57
2019-05-14T11:31:29.919Z,16.73
2019-05-14T11:35:39.400Z,16.99
2019-05-14T11:39:48.703Z,16.98
2019-05-14T11:43:59.233Z,16.79
2019-05-14T11:48:06.292Z,16.63
2019-05-14T11:52:14.418Z,16.80
2019-05-14T11:56:22.014Z,16.73
2019-05-14T12:00:30.820Z,16.88
2019-05-14T12:04:39.264Z,16.90
2019-05-14T12:08:46.712Z,16.98
2019-05-14T12:12:54.781Z,17.51
2019-05-14T12:17:02.508Z,18.32
2019-05-14T12:21:12.489Z,18.69
2019-05-14T12:25:20.203Z,18.59
2019-05-14T12:29:29.209Z,18.35
2019-05-14T12:33:39.455Z,18.81
2019-05-14T12:37:46.761Z,19.04
2019-05-14T12:41:54.374Z,18.63
2019-05-14T12:46:03.004Z,18.21
2019-05-14T12:50:11.224Z,18.63
2019-05-14T12:54:19.943Z,18.90
2019-05-14T12:58:28.563Z,18.83
2019-05-14T13:02:36.342Z,18.86
2019-05-14T13:06:44.407Z,18.81
2019-05-14T13:10:52.198Z,18.68
2019-05-14T13:15:01.492Z,18.54
2019-05-14T13:19:09.436Z,18.27
2019-05-14T13:23:18.376Z,18.36
2019-05-14T13:27:28.601Z,18.50
2019-05-14T13:31:35.522Z,18.42
2019-05-14T13:35:43.574Z,18.03
2019-05-14T13:39:53.103Z,17.86
2019-05-14T13:44:17.298Z,17.80
2019-05-14T13:48:10.272Z,17.54
2019-05-14T13:52:18.861Z,17.49
2019-05-14T13:56:28.352Z,17.36
2019-05-14T14:00:36.675Z,17.27
2019-05-14T14:04:44.483Z,17.21
2019-05-14T14:08:52.412Z,17.32
2019-05-14T14:13:00.936Z,17.53
2019-05-14T14:17:08.853Z,17.64
2019-05-14T14:21:19.700Z,17.56
2019-05-14T14:25:29.557Z,17.53
2019-05-14T14:29:39.340Z,17.45
2019-05-14T14:33:48.767Z,17.25
2019-05-14T14:37:59.179Z,17.25
2019-05-14T14:42:06.244Z,17.26
2019-05-14T14:46:14.518Z,17.16
2019-05-14T14:50:22.321Z,17.14
2019-05-14T14:54:29.801Z,17.09
2019-05-14T14:58:39.158Z,16.98
2019-05-14T15:02:49.552Z,16.90
2019-05-14T15:06:59.574Z,16.91
2019-05-14T15:11:08.574Z,16.81
2019-05-14T15:15:18.478Z,16.70
2019-05-14T15:19:25.149Z,17.02
2019-05-14T15:23:33.191Z,17.05
2019-05-14T15:27:40.679Z,16.83
2019-05-14T15:31:48.985Z,16.83
2019-05-14T15:35:58.237Z,16.99
2019-05-14T15:40:07.800Z,16.61
2019-05-14T15:44:15.675Z,16.41
2019-05-14T15:48:23.069Z,16.30
2019-05-14T15:52:31.146Z,16.41
2019-05-14T15:56:39.561Z,16.26
2019-05-14T16:00:48.375Z,16.38
2019-05-14T16:04:59.000Z,16.23
2019-05-14T16:09:06.859Z,16.12
2019-05-14T16:13:14.763Z,16.10
2019-05-14T16:17:24.653Z,16.10
2019-05-14T16:21:31.971Z,16.04
2019-05-14T16:25:40.235Z,15.89
2019-05-14T16:29:48.265Z,15.87
2019-05-14T16:33:56.020Z,15.93
2019-05-14T16:38:04.599Z,15.95
2019-05-14T16:42:12.309Z,15.89
2019-05-14T16:46:20.213Z,15.81
2019-05-14T16:50:28.642Z,15.72
2019-05-14T16:54:39.255Z,15.74
2019-05-14T16:58:46.540Z,15.84
2019-05-14T17:02:54.190Z,15.68
2019-05-14T17:07:01.702Z,15.63
2019-05-14T17:11:09.695Z,15.58
2019-05-14T17:15:18.171Z,15.50
2019-05-14T17:19:25.910Z,15.49
2019-05-14T17:23:34.417Z,15.46
2019-05-14T17:27:42.204Z,15.51
2019-05-14T17:31:49.783Z,15.53
2019-05-14T17:35:58.636Z,15.50
2019-05-14T17:40:09.336Z,15.53
2019-05-14T17:44:17.548Z,15.53
2019-05-14T17:48:25.454Z,15.61
2019-05-14T17:52:33.475Z,15.54
2019-05-14T17:56:41.167Z,15.45
2019-05-14T18:00:49.063Z,15.28
2019-05-14T18:04:59.292Z,15.33
2019-05-14T18:09:09.138Z,15.28
2019-05-14T18:13:18.189Z,15.29
2019-05-14T18:17:26.192Z,15.30
2019-05-14T18:21:33.877Z,15.34
2019-05-14T18:25:41.870Z,15.29
2019-05-14T18:29:50.690Z,15.20
2019-05-14T18:33:58.914Z,15.25
2019-05-14T18:38:08.286Z,15.09
2019-05-14T18:42:15.979Z,15.01
2019-05-14T18:46:23.951Z,15.02
2019-05-14T18:50:31.359Z,14.91
2019-05-14T18:54:39.085Z,15.01
2019-05-14T18:58:48.599Z,14.93
2019-05-14T19:02:55.990Z,15.00
2019-05-14T19:07:04.046Z,14.93
2019-05-14T19:11:11.543Z,14.92
2019-05-14T19:15:19.348Z,15.04
2019-05-14T19:19:29.210Z,14.98
2019-05-14T19:23:38.256Z,14.96
2019-05-14T19:27:45.596Z,14.97
2019-05-14T19:31:53.084Z,15.00
2019-05-14T19:36:01.082Z,14.99
2019-05-14T19:40:09.594Z,15.03
2019-05-14T19:44:19.151Z,15.10
2019-05-14T19:48:32.089Z,15.11
2019-05-14T19:52:39.001Z,15.17
2019-05-14T19:56:55.617Z,15.21
2019-05-14T20:00:56.254Z,15.23
2019-05-14T20:05:05.562Z,15.22
2019-05-14T20:09:15.263Z,15.23
2019-05-14T20:13:23.074Z,15.36
2019-05-14T20:17:30.985Z,15.38
2019-05-14T20:21:39.230Z,15.29
2019-05-14T20:25:48.149Z,15.33
2019-05-14T20:29:57.978Z,15.31
2019-05-14T20:34:05.728Z,15.41
2019-05-14T20:38:14.253Z,15.35
2019-05-14T20:42:25.979Z,15.24
2019-05-14T20:46:35.458Z,15.24
2019-05-14T20:50:44.380Z,15.23
2019-05-14T20:54:54.188Z,15.25
2019-05-14T20:59:02.098Z,15.23
2019-05-14T21:03:09.864Z,15.24
2019-05-14T21:07:17.628Z,15.25
2019-05-14T21:11:25.720Z,15.22
2019-05-14T21:15:33.341Z,15.09
2019-05-14T21:19:41.873Z,15.11
2019-05-14T21:23:49.567Z,15.18
2019-05-14T21:27:58.764Z,15.13
2019-05-14T21:32:08.219Z,15.03
2019-05-14T21:36:19.489Z,14.99
2019-05-14T21:40:31.984Z,15.02
2019-05-14T21:44:39.191Z,15.00
2019-05-14T21:48:47.802Z,14.93
2019-05-14T21:52:59.442Z,14.87
2019-05-14T21:57:11.317Z,14.94
2019-05-14T22:01:18.747Z,14.99
2019-05-14T22:05:28.531Z,14.95
2019-05-14T22:09:38.984Z,14.98
2019-05-14T22:13:46.632Z,14.97
2019-05-14T22:17:54.753Z,15.10
2019-05-14T22:22:02.457Z,14.96
2019-05-14T22:26:10.779Z,15.00
2019-05-14T22:30:19.130Z,14.96
2019-05-14T22:34:28.034Z,14.91
2019-05-14T22:38:38.719Z,14.79
2019-05-14T22:42:46.242Z,14.71
2019-05-14T22:46:53.841Z,14.78
2019-05-14T22:51:02.058Z,14.73
2019-05-14T22:55:09.848Z,14.67
2019-05-14T22:59:20.343Z,14.60
2019-05-14T23:03:29.013Z,14.56
2019-05-14T23:07:38.295Z,14.60
2019-05-14T23:11:47.997Z,14.56
2019-05-14T23:15:55.987Z,14.52
2019-05-14T23:20:03.772Z,14.52
2019-05-14T23:24:11.994Z,14.45
2019-05-14T23:28:19.807Z,14.50
2019-05-14T23:32:28.612Z,14.47
2019-05-14T23:36:38.788Z,14.44
2019-05-14T23:40:46.317Z,14.40
2019-05-14T23:44:54.754Z,14.40
2019-05-14T23:49:03.071Z,14.40
2019-05-14T23:53:10.752Z,14.38
2019-05-14T23:57:19.275Z,14.34
